Conmar Elbe — 5BQU3 — position and weather

sailwx.info

Track history (hours):
 
Tides and Currents Weather Stations Pressure Air Temp Water Temp Dewpoint Dewpoint Depression Visibility Wind Speed Wind Dir Waves Ship Positions

Conmar Elbe

Last reported at 2017-Oct-17 02:22 UTC. Time now 2017-Oct-17 06:20 UTC.
Position N 53°37' E 005°42'.

Length 133 m; draft 5.7 m.

Type: Ship. MMSI: 209724000.

Date/timePositionNaut miles runAvg speedWind from/ knotsBaromVisibWave heightAir tempDewpointWater temp
2017-Oct-17 02:22N 53°37' E 005°42'713.5
2017-Oct-17 01:51N 53°35' E 005°31'913.4
2017-Oct-17 01:12N 53°32' E 005°17'413.1
2017-Oct-17 00:52N 53°31' E 005°10'513.1
2017-Oct-17 00:30N 53°29' E 005°03'613.0
2017-Oct-17 00:00N 53°26' E 004°53'712.8
2017-Oct-16 23:28N 53°23' E 004°43'1612.7
2017-Oct-16 22:11N 53°09' E 004°30'312.1
2017-Oct-16 21:58N 53°06' E 004°28'612.2
2017-Oct-16 21:29N 53°01' E 004°23'612.2
2017-Oct-16 21:00N 52°56' E 004°18'612.2
2017-Oct-16 20:30N 52°51' E 004°13'612.1
2017-Oct-16 20:00N 52°45' E 004°08'612.0
2017-Oct-16 19:30N 52°41' E 004°01'7511.3
2017-Oct-16 12:54N 51°48' E 002°37'514.1
2017-Oct-16 12:30N 51°43' E 002°31'714.1
2017-Oct-16 12:00N 51°38' E 002°23'714.5
2017-Oct-16 11:31N 51°33' E 002°16'714.4
2017-Oct-16 11:00N 51°27' E 002°08'714.4
2017-Oct-16 10:31N 51°22' E 002°01'714.4
2017-Oct-16 10:00N 51°16' E 001°53'714.6
2017-Oct-16 09:30N 51°10' E 001°46'714.9
2017-Oct-16 09:00N 51°04' E 001°39'815.0
2017-Oct-16 08:30N 50°58' E 001°33'714.8
2017-Oct-16 08:01N 50°52' E 001°27'714.2
2017-Oct-16 07:30N 50°45' E 001°23'714.4
2017-Oct-16 07:01N 50°39' E 001°16'714.0
2017-Oct-16 06:30N 50°35' E 001°08'714.0
2017-Oct-16 06:00N 50°31' E 000°59'714.0
2017-Oct-16 05:30N 50°29' E 000°48'713.8
2017-Oct-16 05:00N 50°27' E 000°38'713.4
2017-Oct-16 04:27N 50°25' E 000°27'613.3
2017-Oct-16 04:00N 50°23' E 000°18'713.1
2017-Oct-16 03:30N 50°21' E 000°08'712.9
2017-Oct-16 02:59N 50°19' W 000°02'612.7
2017-Oct-16 02:30N 50°17' W 000°11'612.7
2017-Oct-16 02:00N 50°16' W 000°21'612.9
2017-Oct-16 01:30N 50°14' W 000°31'612.6
2017-Oct-16 01:00N 50°12' W 000°40'2712.0
2017-Oct-15 22:45N 50°04' W 001°20'3912.1
2017-Oct-15 19:34N 49°54' W 002°18'213.2
2017-Oct-15 19:27N 49°54' W 002°20'613.6
2017-Oct-15 19:00N 49°52' W 002°29'713.9
2017-Oct-15 18:30N 49°50' W 002°40'714.3
2017-Oct-15 18:00N 49°48' W 002°50'714.4
2017-Oct-15 17:30N 49°44' W 002°60'714.3
2017-Oct-15 17:00N 49°41' W 003°10'713.7
2017-Oct-15 16:31N 49°38' W 003°19'713.8
2017-Oct-15 16:00N 49°34' W 003°28'714.0
2017-Oct-15 15:30N 49°31' W 003°37'713.7
2017-Oct-15 15:00N 49°27' W 003°47'6314.4
2017-Oct-15 10:39N 48°57' W 005°10'414.3
2017-Oct-15 10:23N 48°55' W 005°15'714.4
2017-Oct-15 09:55N 48°51' W 005°24'3513.6
2017-Oct-15 07:22N 48°23' W 005°54'513.7
2017-Oct-15 07:00N 48°19' W 005°58'2713.5
2017-Oct-15 04:58N 47°54' W 006°17'613.4
2017-Oct-15 04:30N 47°48' W 006°21'40413.5
2017-Oct-13 22:34N 41°32' W 009°48'213.5
2017-Oct-13 22:27N 41°31' W 009°48'613.8
2017-Oct-13 22:00N 41°25' W 009°48'713.7
2017-Oct-13 21:30N 41°18' W 009°49'813.6
2017-Oct-13 20:54N 41°10' W 009°49'513.7
2017-Oct-13 20:30N 41°04' W 009°49'713.6
2017-Oct-13 20:00N 40°57' W 009°49'713.6
2017-Oct-13 19:30N 40°51' W 009°49'713.5
2017-Oct-13 19:00N 40°44' W 009°49'713.4
2017-Oct-13 18:30N 40°37' W 009°49'713.4
2017-Oct-13 18:00N 40°31' W 009°49'713.4
2017-Oct-13 17:30N 40°24' W 009°50'1013.5
2017-Oct-13 16:47N 40°14' W 009°50'413.3
2017-Oct-13 16:30N 40°10' W 009°50'4613.3
2017-Oct-13 13:02N 39°24' W 009°50'313.1
2017-Oct-13 12:50N 39°21' W 009°50'612.8
2017-Oct-13 12:20N 39°15' W 009°51'412.9
2017-Oct-13 12:00N 39°11' W 009°51'612.9
2017-Oct-13 11:30N 39°04' W 009°51'612.7
2017-Oct-13 11:00N 38°58' W 009°51'613.0
2017-Oct-13 10:30N 38°52' W 009°51'713.0
2017-Oct-13 10:00N 38°45' W 009°51'713.3
2017-Oct-13 09:30N 38°38' W 009°50'713.2
2017-Oct-13 09:00N 38°32' W 009°48'713.5
2017-Oct-13 08:28N 38°25' W 009°46'913.2
2017-Oct-13 07:49N 38°17' W 009°43'813.6
2017-Oct-13 07:13N 38°09' W 009°41'2713.9
2017-Oct-13 05:17N 37°42' W 009°33'1513.5
2017-Oct-13 04:12N 37°28' W 009°29'5612.7
2017-Oct-12 23:47N 36°38' W 008°57'514.0
2017-Oct-12 23:24N 36°33' W 008°55'513.2
2017-Oct-12 22:59N 36°28' W 008°53'613.4
2017-Oct-12 22:30N 36°22' W 008°50'613.0
2017-Oct-12 22:00N 36°16' W 008°47'613.0
2017-Oct-12 21:30N 36°10' W 008°44'913.2
2017-Oct-12 20:49N 36°01' W 008°39'413.6
2017-Oct-12 20:29N 35°57' W 008°37'612.9
2017-Oct-12 20:00N 35°51' W 008°35'2213.2
2017-Oct-12 18:21N 35°31' W 008°25'513.2
2017-Oct-12 17:57N 35°26' W 008°23'613.5
2017-Oct-12 17:28N 35°20' W 008°20'713.4
2017-Oct-12 16:58N 35°14' W 008°17'613.6
2017-Oct-12 16:30N 35°08' W 008°14'713.5
2017-Oct-12 16:00N 35°02' W 008°11'713.4
2017-Oct-12 15:30N 34°55' W 008°08'713.4
2017-Oct-12 15:00N 34°49' W 008°05'713.6
2017-Oct-12 14:29N 34°43' W 008°02'713.5
2017-Oct-12 13:59N 34°36' W 007°59'713.5
2017-Oct-12 13:28N 34°30' W 007°56'713.6
2017-Oct-12 12:59N 34°24' W 007°53'613.4
2017-Oct-12 12:30N 34°18' W 007°51'813.5
2017-Oct-12 11:55N 34°10' W 007°48'613.4
2017-Oct-12 11:29N 34°05' W 007°45'713.3
2017-Oct-12 10:59N 33°59' W 007°42'13 0.3
2017-Oct-10 16:48N 33°46' W 007°37'514.4
2017-Oct-10 16:28N 33°50' W 007°39'613.5
2017-Oct-10 16:00N 33°56' W 007°43'713.4
2017-Oct-10 15:30N 34°02' W 007°46'713.7
2017-Oct-10 15:00N 34°08' W 007°50'1413.6
2017-Oct-10 14:00N 34°20' W 007°58'613.0
2017-Oct-10 13:30N 34°26' W 008°02'613.0
2017-Oct-10 13:00N 34°31' W 008°05'713.1
2017-Oct-10 12:29N 34°38' W 008°09'613.1
2017-Oct-10 11:59N 34°43' W 008°13'613.0
2017-Oct-10 11:30N 34°49' W 008°16'713.1
2017-Oct-10 11:00N 34°55' W 008°20'613.2
2017-Oct-10 10:30N 35°01' W 008°23'713.4
2017-Oct-10 10:00N 35°07' W 008°27'3 6.8
2017-Oct-10 09:31N 35°09' W 008°29'0 0.6
2017-Oct-10 09:00N 35°10' W 008°29'4 7.9
2017-Oct-10 08:30N 35°13' W 008°32'2 3.0
2017-Oct-10 08:00N 35°14' W 008°33'713.1
2017-Oct-10 07:29N 35°20' W 008°37'613.0
2017-Oct-10 07:00N 35°26' W 008°40'613.0
2017-Oct-10 06:30N 35°32' W 008°44'612.9
2017-Oct-10 06:00N 35°37' W 008°47'713.5
2017-Oct-10 05:30N 35°43' W 008°51'714.1
2017-Oct-10 05:00N 35°49' W 008°56'714.2
2017-Oct-10 04:31N 35°56' W 008°60'713.7
2017-Oct-10 04:00N 36°02' W 009°04'713.6
2017-Oct-10 03:30N 36°08' W 009°07'713.2
2017-Oct-10 03:00N 36°14' W 009°11'713.1
2017-Oct-10 02:31N 36°19' W 009°15'713.1
2017-Oct-10 02:00N 36°25' W 009°19'713.2
2017-Oct-10 01:31N 36°31' W 009°23'613.0
2017-Oct-10 01:00N 36°37' W 009°26'612.8
2017-Oct-10 00:31N 36°42' W 009°30'713.1
2017-Oct-10 00:01N 36°48' W 009°34'713.4
2017-Oct-09 23:30N 36°55' W 009°36'613.0
2017-Oct-09 23:00N 37°01' W 009°38'612.8
2017-Oct-09 22:31N 37°07' W 009°40'612.9
2017-Oct-09 22:01N 37°13' W 009°41'713.0
2017-Oct-09 21:31N 37°20' W 009°43'713.4
2017-Oct-09 21:00N 37°26' W 009°44'713.6
2017-Oct-09 20:30N 37°33' W 009°47'713.0
2017-Oct-09 20:01N 37°39' W 009°49'612.9
2017-Oct-09 19:30N 37°46' W 009°50'713.7
2017-Oct-09 19:01N 37°52' W 009°53'713.3
2017-Oct-09 18:30N 37°59' W 009°55'713.0
2017-Oct-09 18:00N 38°05' W 009°56'713.4
2017-Oct-09 17:31N 38°12' W 009°58'713.5
2017-Oct-09 17:00N 38°18' W 010°00'713.4
2017-Oct-09 16:31N 38°25' W 010°02'713.2
2017-Oct-09 16:00N 38°31' W 010°04'612.9
2017-Oct-09 15:30N 38°37' W 010°06'713.4
2017-Oct-09 15:01N 38°44' W 010°07'713.2
2017-Oct-09 14:30N 38°51' W 010°07'612.9
2017-Oct-09 14:01N 38°57' W 010°07'713.0
2017-Oct-09 13:30N 39°04' W 010°07'612.7
2017-Oct-09 13:00N 39°10' W 010°07'612.8
2017-Oct-09 12:30N 39°16' W 010°07'612.8
2017-Oct-09 12:00N 39°23' W 010°07'713.1
2017-Oct-09 11:30N 39°29' W 010°07'713.2
2017-Oct-09 11:00N 39°36' W 010°07'713.0
2017-Oct-09 10:30N 39°43' W 010°07'613.0
2017-Oct-09 10:00N 39°49' W 010°07'612.9
2017-Oct-09 09:30N 39°56' W 010°07'612.7
2017-Oct-09 09:00N 40°02' W 010°08'612.9
2017-Oct-09 08:30N 40°08' W 010°08'713.2
2017-Oct-09 08:00N 40°15' W 010°08'713.4
2017-Oct-09 07:30N 40°22' W 010°08'713.1
2017-Oct-09 07:00N 40°28' W 010°08'714.7
2017-Oct-09 06:30N 40°35' W 010°07'713.4
2017-Oct-09 06:00N 40°42' W 010°07'713.4
2017-Oct-09 05:31N 40°49' W 010°07'713.4
2017-Oct-09 05:01N 40°56' W 010°07'713.3
2017-Oct-09 04:31N 41°02' W 010°07'713.2
2017-Oct-09 04:00N 41°09' W 010°07'713.6
2017-Oct-09 03:31N 41°16' W 010°07'713.6
2017-Oct-09 03:00N 41°22' W 010°07'713.3
2017-Oct-09 02:31N 41°29' W 010°07'713.3
2017-Oct-09 02:01N 41°36' W 010°07'713.4
2017-Oct-09 01:31N 41°42' W 010°07'40413.5
2017-Oct-07 19:33N 47°57' W 006°34'215.2
2017-Oct-07 19:26N 47°58' W 006°33'1314.6
2017-Oct-07 18:33N 48°10' W 006°24'913.9
2017-Oct-07 17:53N 48°18' W 006°17'1213.3
2017-Oct-07 17:00N 48°28' W 006°09'612.6
2017-Oct-07 16:30N 48°34' W 006°04'812.5
2017-Oct-07 15:54N 48°40' W 005°59'512.4
2017-Oct-07 15:28N 48°45' W 005°55'612.6
2017-Oct-07 15:01N 48°50' W 005°51'612.5
2017-Oct-07 14:31N 48°55' W 005°44'813.2
2017-Oct-07 13:52N 48°59' W 005°33'714.0
2017-Oct-07 13:20N 49°03' W 005°23'5214.9
2017-Oct-07 09:51N 49°29' W 004°15'614.2
2017-Oct-07 09:24N 49°32' W 004°06'1013.5
2017-Oct-07 08:39N 49°37' W 003°53'512.8
2017-Oct-07 08:15N 49°40' W 003°46'412.4
2017-Oct-07 07:57N 49°42' W 003°41'1112.3
2017-Oct-07 07:06N 49°47' W 003°27'511.6
2017-Oct-07 06:40N 49°50' W 003°20'  
Track history (hours):
 
Tides and Currents Weather Stations Pressure Air Temp Water Temp Dewpoint Dewpoint Depression Visibility Wind Speed Wind Dir Waves Ship Positions

Conmar Elbe

Last reported at 2017-Oct-17 02:22 UTC. Time now 2017-Oct-17 06:20 UTC.
Position N 53°37' E 005°42'.

Length 133 m; draft 5.7 m.

Type: Ship. MMSI: 209724000.

Date/timePositionNaut miles runAvg speedWind from/ knotsBaromVisibWave heightAir tempDewpointWater temp
2017-Oct-17 02:22N 53°37' E 005°42'713.5
2017-Oct-17 01:51N 53°35' E 005°31'913.4
2017-Oct-17 01:12N 53°32' E 005°17'413.1
2017-Oct-17 00:52N 53°31' E 005°10'513.1
2017-Oct-17 00:30N 53°29' E 005°03'613.0
2017-Oct-17 00:00N 53°26' E 004°53'712.8
2017-Oct-16 23:28N 53°23' E 004°43'1612.7
2017-Oct-16 22:11N 53°09' E 004°30'312.1
2017-Oct-16 21:58N 53°06' E 004°28'612.2
2017-Oct-16 21:29N 53°01' E 004°23'612.2
2017-Oct-16 21:00N 52°56' E 004°18'612.2
2017-Oct-16 20:30N 52°51' E 004°13'612.1
2017-Oct-16 20:00N 52°45' E 004°08'612.0
2017-Oct-16 19:30N 52°41' E 004°01'7511.3
2017-Oct-16 12:54N 51°48' E 002°37'514.1
2017-Oct-16 12:30N 51°43' E 002°31'714.1
2017-Oct-16 12:00N 51°38' E 002°23'714.5
2017-Oct-16 11:31N 51°33' E 002°16'714.4
2017-Oct-16 11:00N 51°27' E 002°08'714.4
2017-Oct-16 10:31N 51°22' E 002°01'714.4
2017-Oct-16 10:00N 51°16' E 001°53'714.6
2017-Oct-16 09:30N 51°10' E 001°46'714.9
2017-Oct-16 09:00N 51°04' E 001°39'815.0
2017-Oct-16 08:30N 50°58' E 001°33'714.8
2017-Oct-16 08:01N 50°52' E 001°27'714.2
2017-Oct-16 07:30N 50°45' E 001°23'714.4
2017-Oct-16 07:01N 50°39' E 001°16'714.0
2017-Oct-16 06:30N 50°35' E 001°08'714.0
2017-Oct-16 06:00N 50°31' E 000°59'714.0
2017-Oct-16 05:30N 50°29' E 000°48'713.8
2017-Oct-16 05:00N 50°27' E 000°38'713.4
2017-Oct-16 04:27N 50°25' E 000°27'613.3
2017-Oct-16 04:00N 50°23' E 000°18'713.1
2017-Oct-16 03:30N 50°21' E 000°08'712.9
2017-Oct-16 02:59N 50°19' W 000°02'612.7
2017-Oct-16 02:30N 50°17' W 000°11'612.7
2017-Oct-16 02:00N 50°16' W 000°21'612.9
2017-Oct-16 01:30N 50°14' W 000°31'612.6
2017-Oct-16 01:00N 50°12' W 000°40'2712.0
2017-Oct-15 22:45N 50°04' W 001°20'3912.1
2017-Oct-15 19:34N 49°54' W 002°18'213.2
2017-Oct-15 19:27N 49°54' W 002°20'613.6
2017-Oct-15 19:00N 49°52' W 002°29'713.9
2017-Oct-15 18:30N 49°50' W 002°40'714.3
2017-Oct-15 18:00N 49°48' W 002°50'714.4
2017-Oct-15 17:30N 49°44' W 002°60'714.3
2017-Oct-15 17:00N 49°41' W 003°10'713.7
2017-Oct-15 16:31N 49°38' W 003°19'713.8
2017-Oct-15 16:00N 49°34' W 003°28'714.0
2017-Oct-15 15:30N 49°31' W 003°37'713.7
2017-Oct-15 15:00N 49°27' W 003°47'6314.4
2017-Oct-15 10:39N 48°57' W 005°10'414.3
2017-Oct-15 10:23N 48°55' W 005°15'714.4
2017-Oct-15 09:55N 48°51' W 005°24'3513.6
2017-Oct-15 07:22N 48°23' W 005°54'513.7
2017-Oct-15 07:00N 48°19' W 005°58'2713.5
2017-Oct-15 04:58N 47°54' W 006°17'613.4
2017-Oct-15 04:30N 47°48' W 006°21'40413.5
2017-Oct-13 22:34N 41°32' W 009°48'213.5
2017-Oct-13 22:27N 41°31' W 009°48'613.8
2017-Oct-13 22:00N 41°25' W 009°48'713.7
2017-Oct-13 21:30N 41°18' W 009°49'813.6
2017-Oct-13 20:54N 41°10' W 009°49'513.7
2017-Oct-13 20:30N 41°04' W 009°49'713.6
2017-Oct-13 20:00N 40°57' W 009°49'713.6
2017-Oct-13 19:30N 40°51' W 009°49'713.5
2017-Oct-13 19:00N 40°44' W 009°49'713.4
2017-Oct-13 18:30N 40°37' W 009°49'713.4
2017-Oct-13 18:00N 40°31' W 009°49'713.4
2017-Oct-13 17:30N 40°24' W 009°50'1013.5
2017-Oct-13 16:47N 40°14' W 009°50'413.3
2017-Oct-13 16:30N 40°10' W 009°50'4613.3
2017-Oct-13 13:02N 39°24' W 009°50'313.1
2017-Oct-13 12:50N 39°21' W 009°50'612.8
2017-Oct-13 12:20N 39°15' W 009°51'412.9
2017-Oct-13 12:00N 39°11' W 009°51'612.9
2017-Oct-13 11:30N 39°04' W 009°51'612.7
2017-Oct-13 11:00N 38°58' W 009°51'613.0
2017-Oct-13 10:30N 38°52' W 009°51'713.0
2017-Oct-13 10:00N 38°45' W 009°51'713.3
2017-Oct-13 09:30N 38°38' W 009°50'713.2
2017-Oct-13 09:00N 38°32' W 009°48'713.5
2017-Oct-13 08:28N 38°25' W 009°46'913.2
2017-Oct-13 07:49N 38°17' W 009°43'813.6
2017-Oct-13 07:13N 38°09' W 009°41'2713.9
2017-Oct-13 05:17N 37°42' W 009°33'1513.5
2017-Oct-13 04:12N 37°28' W 009°29'5612.7
2017-Oct-12 23:47N 36°38' W 008°57'514.0
2017-Oct-12 23:24N 36°33' W 008°55'513.2
2017-Oct-12 22:59N 36°28' W 008°53'613.4
2017-Oct-12 22:30N 36°22' W 008°50'613.0
2017-Oct-12 22:00N 36°16' W 008°47'613.0
2017-Oct-12 21:30N 36°10' W 008°44'913.2
2017-Oct-12 20:49N 36°01' W 008°39'413.6
2017-Oct-12 20:29N 35°57' W 008°37'612.9
2017-Oct-12 20:00N 35°51' W 008°35'2213.2
2017-Oct-12 18:21N 35°31' W 008°25'513.2
2017-Oct-12 17:57N 35°26' W 008°23'613.5
2017-Oct-12 17:28N 35°20' W 008°20'713.4
2017-Oct-12 16:58N 35°14' W 008°17'613.6
2017-Oct-12 16:30N 35°08' W 008°14'713.5
2017-Oct-12 16:00N 35°02' W 008°11'713.4
2017-Oct-12 15:30N 34°55' W 008°08'713.4
2017-Oct-12 15:00N 34°49' W 008°05'713.6
2017-Oct-12 14:29N 34°43' W 008°02'713.5
2017-Oct-12 13:59N 34°36' W 007°59'713.5
2017-Oct-12 13:28N 34°30' W 007°56'713.6
2017-Oct-12 12:59N 34°24' W 007°53'613.4
2017-Oct-12 12:30N 34°18' W 007°51'813.5
2017-Oct-12 11:55N 34°10' W 007°48'613.4
2017-Oct-12 11:29N 34°05' W 007°45'713.3
2017-Oct-12 10:59N 33°59' W 007°42'13 0.3
2017-Oct-10 16:48N 33°46' W 007°37'514.4
2017-Oct-10 16:28N 33°50' W 007°39'613.5
2017-Oct-10 16:00N 33°56' W 007°43'713.4
2017-Oct-10 15:30N 34°02' W 007°46'713.7
2017-Oct-10 15:00N 34°08' W 007°50'1413.6
2017-Oct-10 14:00N 34°20' W 007°58'613.0
2017-Oct-10 13:30N 34°26' W 008°02'613.0
2017-Oct-10 13:00N 34°31' W 008°05'713.1
2017-Oct-10 12:29N 34°38' W 008°09'613.1
2017-Oct-10 11:59N 34°43' W 008°13'613.0
2017-Oct-10 11:30N 34°49' W 008°16'713.1
2017-Oct-10 11:00N 34°55' W 008°20'613.2
2017-Oct-10 10:30N 35°01' W 008°23'713.4
2017-Oct-10 10:00N 35°07' W 008°27'3 6.8
2017-Oct-10 09:31N 35°09' W 008°29'0 0.6
2017-Oct-10 09:00N 35°10' W 008°29'4 7.9
2017-Oct-10 08:30N 35°13' W 008°32'2 3.0
2017-Oct-10 08:00N 35°14' W 008°33'713.1
2017-Oct-10 07:29N 35°20' W 008°37'613.0
2017-Oct-10 07:00N 35°26' W 008°40'613.0
2017-Oct-10 06:30N 35°32' W 008°44'612.9
2017-Oct-10 06:00N 35°37' W 008°47'713.5
2017-Oct-10 05:30N 35°43' W 008°51'714.1
2017-Oct-10 05:00N 35°49' W 008°56'714.2
2017-Oct-10 04:31N 35°56' W 008°60'713.7
2017-Oct-10 04:00N 36°02' W 009°04'713.6
2017-Oct-10 03:30N 36°08' W 009°07'713.2
2017-Oct-10 03:00N 36°14' W 009°11'713.1
2017-Oct-10 02:31N 36°19' W 009°15'713.1
2017-Oct-10 02:00N 36°25' W 009°19'713.2
2017-Oct-10 01:31N 36°31' W 009°23'613.0
2017-Oct-10 01:00N 36°37' W 009°26'612.8
2017-Oct-10 00:31N 36°42' W 009°30'713.1
2017-Oct-10 00:01N 36°48' W 009°34'713.4
2017-Oct-09 23:30N 36°55' W 009°36'613.0
2017-Oct-09 23:00N 37°01' W 009°38'612.8
2017-Oct-09 22:31N 37°07' W 009°40'612.9
2017-Oct-09 22:01N 37°13' W 009°41'713.0
2017-Oct-09 21:31N 37°20' W 009°43'713.4
2017-Oct-09 21:00N 37°26' W 009°44'713.6
2017-Oct-09 20:30N 37°33' W 009°47'713.0
2017-Oct-09 20:01N 37°39' W 009°49'612.9
2017-Oct-09 19:30N 37°46' W 009°50'713.7
2017-Oct-09 19:01N 37°52' W 009°53'713.3
2017-Oct-09 18:30N 37°59' W 009°55'713.0
2017-Oct-09 18:00N 38°05' W 009°56'713.4
2017-Oct-09 17:31N 38°12' W 009°58'713.5
2017-Oct-09 17:00N 38°18' W 010°00'713.4
2017-Oct-09 16:31N 38°25' W 010°02'713.2
2017-Oct-09 16:00N 38°31' W 010°04'612.9
2017-Oct-09 15:30N 38°37' W 010°06'713.4
2017-Oct-09 15:01N 38°44' W 010°07'713.2
2017-Oct-09 14:30N 38°51' W 010°07'612.9
2017-Oct-09 14:01N 38°57' W 010°07'713.0
2017-Oct-09 13:30N 39°04' W 010°07'612.7
2017-Oct-09 13:00N 39°10' W 010°07'612.8
2017-Oct-09 12:30N 39°16' W 010°07'612.8
2017-Oct-09 12:00N 39°23' W 010°07'713.1
2017-Oct-09 11:30N 39°29' W 010°07'713.2
2017-Oct-09 11:00N 39°36' W 010°07'713.0
2017-Oct-09 10:30N 39°43' W 010°07'613.0
2017-Oct-09 10:00N 39°49' W 010°07'612.9
2017-Oct-09 09:30N 39°56' W 010°07'612.7
2017-Oct-09 09:00N 40°02' W 010°08'612.9
2017-Oct-09 08:30N 40°08' W 010°08'713.2
2017-Oct-09 08:00N 40°15' W 010°08'713.4
2017-Oct-09 07:30N 40°22' W 010°08'713.1
2017-Oct-09 07:00N 40°28' W 010°08'714.7
2017-Oct-09 06:30N 40°35' W 010°07'713.4
2017-Oct-09 06:00N 40°42' W 010°07'713.4
2017-Oct-09 05:31N 40°49' W 010°07'713.4
2017-Oct-09 05:01N 40°56' W 010°07'713.3
2017-Oct-09 04:31N 41°02' W 010°07'713.2
2017-Oct-09 04:00N 41°09' W 010°07'713.6
2017-Oct-09 03:31N 41°16' W 010°07'713.6
2017-Oct-09 03:00N 41°22' W 010°07'713.3
2017-Oct-09 02:31N 41°29' W 010°07'713.3
2017-Oct-09 02:01N 41°36' W 010°07'713.4
2017-Oct-09 01:31N 41°42' W 010°07'40413.5
2017-Oct-07 19:33N 47°57' W 006°34'215.2
2017-Oct-07 19:26N 47°58' W 006°33'1314.6
2017-Oct-07 18:33N 48°10' W 006°24'913.9
2017-Oct-07 17:53N 48°18' W 006°17'1213.3
2017-Oct-07 17:00N 48°28' W 006°09'612.6
2017-Oct-07 16:30N 48°34' W 006°04'812.5
2017-Oct-07 15:54N 48°40' W 005°59'512.4
2017-Oct-07 15:28N 48°45' W 005°55'612.6
2017-Oct-07 15:01N 48°50' W 005°51'612.5
2017-Oct-07 14:31N 48°55' W 005°44'813.2
2017-Oct-07 13:52N 48°59' W 005°33'714.0
2017-Oct-07 13:20N 49°03' W 005°23'5214.9
2017-Oct-07 09:51N 49°29' W 004°15'614.2
2017-Oct-07 09:24N 49°32' W 004°06'1013.5
2017-Oct-07 08:39N 49°37' W 003°53'512.8
2017-Oct-07 08:15N 49°40' W 003°46'412.4
2017-Oct-07 07:57N 49°42' W 003°41'1112.3
2017-Oct-07 07:06N 49°47' W 003°27'511.6
2017-Oct-07 06:40N 49°50' W 003°20'  

Dump ship's entire track history